createdAt,value
2023-02-11T00:01:13.455Z,25.80
2023-02-11T00:03:41.578Z,29.27
2023-02-11T00:06:11.606Z,30.73
2023-02-11T00:08:38.567Z,27.58
2023-02-11T00:11:05.720Z,25.80
2023-02-11T00:13:32.368Z,29.63
2023-02-11T00:15:59.998Z,30.23
2023-02-11T00:18:26.716Z,31.83
2023-02-11T00:20:53.367Z,30.73
2023-02-11T00:23:20.077Z,27.02
2023-02-11T00:25:46.780Z,28.10
2023-02-11T00:28:13.600Z,29.55
2023-02-11T00:30:40.992Z,26.95
2023-02-11T00:33:07.859Z,26.63
2023-02-11T00:35:37.800Z,29.33
2023-02-11T00:38:04.535Z,24.95
2023-02-11T00:40:31.242Z,28.80
2023-02-11T00:42:58.034Z,29.55
2023-02-11T00:45:24.919Z,29.63
2023-02-11T00:47:51.816Z,26.08
2023-02-11T00:50:18.625Z,25.30
2023-02-11T00:52:45.287Z,29.92
2023-02-11T00:55:12.007Z,24.42
2023-02-11T00:57:38.695Z,25.40
2023-02-11T01:00:06.825Z,23.30
2023-02-11T01:02:33.821Z,22.55
2023-02-11T01:05:01.105Z,28.58
2023-02-11T01:07:29.027Z,23.40
2023-02-11T01:09:56.409Z,26.23
2023-02-11T01:12:23.962Z,23.55
2023-02-11T01:14:50.705Z,25.17
2023-02-11T01:17:17.456Z,23.90
2023-02-11T01:19:44.556Z,22.95
2023-02-11T01:22:11.359Z,27.95
2023-02-11T01:24:38.158Z,22.52
2023-02-11T01:27:04.857Z,23.38
2023-02-11T01:29:31.623Z,25.33
2023-02-11T01:32:00.641Z,25.05
2023-02-11T01:34:27.439Z,25.33
2023-02-11T01:36:59.180Z,24.70
2023-02-11T01:39:27.268Z,25.65
2023-02-11T01:41:54.511Z,23.65
2023-02-11T01:44:34.256Z,24.50
2023-02-11T01:47:01.712Z,24.13
2023-02-11T01:49:36.204Z,26.60
2023-02-11T01:52:24.684Z,22.52
2023-02-11T01:55:14.070Z,25.67
2023-02-11T01:57:45.337Z,20.20
2023-02-11T02:00:25.178Z,25.20
2023-02-11T02:03:09.715Z,22.38
2023-02-11T02:05:42.516Z,23.25
2023-02-11T02:08:29.571Z,21.73
2023-02-11T02:10:58.512Z,24.20
2023-02-11T02:13:26.619Z,23.88
2023-02-11T02:15:54.816Z,26.52
2023-02-11T02:18:26.813Z,27.20
2023-02-11T02:21:44.217Z,29.33
2023-02-11T02:24:39.513Z,26.90
2023-02-11T02:27:20.929Z,26.70
2023-02-11T02:29:56.593Z,25.88
2023-02-11T02:32:47.300Z,27.98
2023-02-11T02:38:26.057Z,27.58
2023-02-11T02:40:58.960Z,29.25
2023-02-11T02:43:27.529Z,28.40
2023-02-11T02:45:54.500Z,32.35
2023-02-11T02:48:32.766Z,29.75
2023-02-11T02:51:15.278Z,33.10
2023-02-11T02:53:58.557Z,30.00
2023-02-11T02:56:46.452Z,29.65
2023-02-11T02:59:16.780Z,31.00
2023-02-11T03:01:43.440Z,30.13
2023-02-11T03:04:48.399Z,34.42
2023-02-11T03:07:34.608Z,27.30
2023-02-11T03:10:19.716Z,28.83
2023-02-11T03:12:48.417Z,29.17
2023-02-11T03:15:17.629Z,32.13
2023-02-11T03:17:48.324Z,36.55
2023-02-11T03:20:18.268Z,33.42
2023-02-11T03:23:24.016Z,28.92
2023-02-11T03:25:56.123Z,31.35
2023-02-11T03:28:41.265Z,35.38
2023-02-11T03:31:18.445Z,32.90
2023-02-11T03:34:00.039Z,34.65
2023-02-11T03:36:50.986Z,31.35
2023-02-11T03:39:35.860Z,33.22
2023-02-11T03:42:04.364Z,35.45
2023-02-11T03:44:42.701Z,30.25
2023-02-11T03:49:39.807Z,32.42
2023-02-11T03:52:11.207Z,38.03
2023-02-11T03:54:40.751Z,36.72
2023-02-11T03:57:07.544Z,35.30
2023-02-11T03:59:50.345Z,33.30
2023-02-11T04:02:17.083Z,37.60
2023-02-11T04:04:44.025Z,40.53
2023-02-11T04:07:12.534Z,35.85
2023-02-11T04:09:39.372Z,35.83
2023-02-11T04:12:06.535Z,38.90
2023-02-11T04:14:33.421Z,43.38
2023-02-11T04:17:00.182Z,40.90
2023-02-11T04:19:26.890Z,39.72
2023-02-11T04:21:53.663Z,39.03
2023-02-11T04:24:20.329Z,44.00
2023-02-11T04:26:47.229Z,42.67
2023-02-11T04:29:13.956Z,40.75
2023-02-11T04:31:40.709Z,44.30
2023-02-11T04:34:07.348Z,40.70
2023-02-11T04:36:34.106Z,44.67
2023-02-11T04:39:00.824Z,38.35
2023-02-11T04:41:27.576Z,43.83
2023-02-11T04:43:54.260Z,40.20
2023-02-11T04:46:20.980Z,37.65
2023-02-11T04:48:47.780Z,37.83
2023-02-11T04:51:14.623Z,40.17
2023-02-11T04:53:41.601Z,34.30
2023-02-11T04:56:08.394Z,34.25
2023-02-11T04:58:35.143Z,35.90
2023-02-11T05:01:13.262Z,35.97
2023-02-11T05:03:40.565Z,39.35
2023-02-11T05:06:07.714Z,35.47
2023-02-11T05:08:34.438Z,36.05
2023-02-11T05:11:02.187Z,34.63
2023-02-11T05:13:30.066Z,36.80
2023-02-11T05:15:57.237Z,35.13
2023-02-11T05:18:24.094Z,39.50
2023-02-11T05:20:51.012Z,32.88
2023-02-11T05:23:17.641Z,35.08
2023-02-11T05:25:44.352Z,36.88
2023-02-11T05:28:11.166Z,29.13
2023-02-11T05:30:37.895Z,32.33
2023-02-11T05:33:04.630Z,37.25
2023-02-11T05:35:31.313Z,35.85
2023-02-11T05:37:57.958Z,30.67
2023-02-11T05:40:24.888Z,30.75
2023-02-11T05:42:51.577Z,36.72
2023-02-11T05:45:18.397Z,30.35
2023-02-11T05:47:45.119Z,33.05
2023-02-11T05:50:11.940Z,34.17
2023-02-11T05:52:38.665Z,32.53
2023-02-11T05:55:05.964Z,31.23
2023-02-11T05:57:32.781Z,30.55
2023-02-11T05:59:59.603Z,29.50
2023-02-11T06:02:26.514Z,25.35
2023-02-11T06:04:53.250Z,31.13
2023-02-11T06:07:19.976Z,31.48
2023-02-11T06:09:46.632Z,31.50
2023-02-11T06:12:13.419Z,26.30
2023-02-11T06:14:40.226Z,25.73
2023-02-11T06:17:07.057Z,27.60
2023-02-11T06:19:34.073Z,26.27
2023-02-11T06:22:01.009Z,29.60
2023-02-11T06:24:48.073Z,30.45
2023-02-11T06:27:14.438Z,27.48
2023-02-11T06:29:41.108Z,27.67
2023-02-11T06:32:15.886Z,25.17
2023-02-11T06:34:50.176Z,30.52
2023-02-11T06:37:16.875Z,38.92
2023-02-11T06:39:45.225Z,36.45
2023-02-11T06:42:12.054Z,29.77
2023-02-11T06:44:39.261Z,27.20
2023-02-11T06:47:06.158Z,28.60
2023-02-11T06:49:32.978Z,35.45
2023-02-11T06:51:59.818Z,36.20
2023-02-11T06:54:26.627Z,36.70
2023-02-11T06:56:53.361Z,34.38
2023-02-11T06:59:20.794Z,35.92
2023-02-11T07:01:47.838Z,31.67
2023-02-11T07:04:15.414Z,33.80
2023-02-11T07:06:42.396Z,28.13
2023-02-11T07:09:09.335Z,35.42
2023-02-11T07:11:36.148Z,30.02
2023-02-11T07:14:10.608Z,27.73
2023-02-11T07:16:38.541Z,28.02
2023-02-11T07:19:05.315Z,32.50
2023-02-11T07:21:32.079Z,30.20
2023-02-11T07:23:58.824Z,32.63
2023-02-11T07:26:29.136Z,28.58
2023-02-11T07:28:56.016Z,30.63
2023-02-11T07:31:27.793Z,23.60
2023-02-11T07:36:22.926Z,21.35
2023-02-11T07:38:50.328Z,25.77
2023-02-11T07:41:20.471Z,22.48
2023-02-11T07:43:47.837Z,24.73
2023-02-11T07:46:17.985Z,24.05
2023-02-11T07:48:44.986Z,24.65
2023-02-11T07:51:22.663Z,32.42
2023-02-11T07:53:50.232Z,23.15
2023-02-11T07:56:19.366Z,19.55
2023-02-11T07:58:46.514Z,24.95
2023-02-11T08:01:19.499Z,21.60
2023-02-11T08:03:46.253Z,22.83
2023-02-11T08:06:15.951Z,23.02
2023-02-11T08:08:43.686Z,23.70
2023-02-11T08:11:18.636Z,28.38
2023-02-11T08:13:46.019Z,25.80
2023-02-11T08:16:22.966Z,24.67
2023-02-11T08:18:50.358Z,18.58
2023-02-11T08:21:17.458Z,19.55
2023-02-11T08:23:44.934Z,26.80
2023-02-11T08:26:15.073Z,29.77
2023-02-11T08:28:43.839Z,23.85
2023-02-11T08:31:13.910Z,30.55
2023-02-11T08:33:41.128Z,23.65
2023-02-11T08:36:12.938Z,18.50
2023-02-11T08:41:06.824Z,22.63
2023-02-11T08:43:34.133Z,19.42
2023-02-11T08:46:02.344Z,18.38
2023-02-11T08:48:29.801Z,19.95
2023-02-11T08:50:57.307Z,18.98
2023-02-11T08:53:24.121Z,18.50
2023-02-11T08:55:52.628Z,18.20
2023-02-11T08:58:20.118Z,25.08
2023-02-11T09:00:47.996Z,19.30
2023-02-11T09:03:15.731Z,20.45
2023-02-11T09:05:43.724Z,17.67
2023-02-11T09:08:10.885Z,17.17
2023-02-11T09:10:38.360Z,16.48
2023-02-11T09:13:05.957Z,19.25
2023-02-11T09:15:33.146Z,19.02
2023-02-11T09:17:59.901Z,17.02
2023-02-11T09:20:27.357Z,19.75
2023-02-11T09:22:58.007Z,19.85
2023-02-11T09:25:25.141Z,16.75
2023-02-11T09:27:54.071Z,17.98
2023-02-11T09:30:21.614Z,17.10
2023-02-11T09:32:48.488Z,13.40
2023-02-11T09:35:15.301Z,16.73
2023-02-11T09:37:42.073Z,14.18
2023-02-11T09:40:09.688Z,9.73
2023-02-11T09:43:04.394Z,13.65
2023-02-11T09:45:31.707Z,17.25
2023-02-11T09:48:06.242Z,14.95
2023-02-11T09:50:40.604Z,12.88
2023-02-11T09:53:25.706Z,10.43
2023-02-11T09:55:59.534Z,15.20
2023-02-11T09:58:27.616Z,14.55
2023-02-11T10:01:21.973Z,12.32
2023-02-11T10:04:00.537Z,12.30
2023-02-11T10:06:39.935Z,9.63
2023-02-11T10:09:31.363Z,15.18
2023-02-11T10:12:16.373Z,12.82
2023-02-11T10:15:14.068Z,11.27
2023-02-11T10:17:58.792Z,13.13
2023-02-11T10:20:46.750Z,12.82
2023-02-11T10:23:25.717Z,11.43
2023-02-11T10:25:54.714Z,13.65
2023-02-11T10:28:35.553Z,14.00
2023-02-11T10:31:02.354Z,8.07
2023-02-11T10:33:47.760Z,11.95
2023-02-11T10:36:17.562Z,11.60
2023-02-11T10:38:44.896Z,14.80
2023-02-11T10:41:20.371Z,11.68
2023-02-11T10:43:47.160Z,10.38
2023-02-11T10:46:19.495Z,12.70
2023-02-11T10:48:52.913Z,12.95
2023-02-11T10:51:25.474Z,13.02
2023-02-11T10:54:04.548Z,13.10
2023-02-11T10:56:36.257Z,12.88
2023-02-11T10:59:28.772Z,11.27
2023-02-11T11:02:02.245Z,9.90
2023-02-11T11:04:44.941Z,14.02
2023-02-11T11:07:22.708Z,12.48
2023-02-11T11:10:44.838Z,12.38
2023-02-11T11:13:28.800Z,8.55
2023-02-11T11:16:14.015Z,8.70
2023-02-11T11:18:43.826Z,8.30
2023-02-11T11:21:41.084Z,10.13
2023-02-11T11:24:21.861Z,10.65
2023-02-11T11:26:55.132Z,10.90
2023-02-11T11:29:31.005Z,8.50
2023-02-11T11:32:04.991Z,7.43
2023-02-11T11:34:34.888Z,9.10
2023-02-11T11:37:12.109Z,9.30
2023-02-11T11:39:39.950Z,10.75
2023-02-11T11:42:26.165Z,7.90
2023-02-11T11:45:23.185Z,7.65
2023-02-11T11:47:57.372Z,11.25
2023-02-11T11:50:34.140Z,9.32
2023-02-11T11:53:07.236Z,12.85
2023-02-11T11:55:50.764Z,10.43
2023-02-11T11:58:21.389Z,10.13
2023-02-11T12:01:20.421Z,7.35
2023-02-11T12:04:05.692Z,7.85
2023-02-11T12:06:53.979Z,5.45
2023-02-11T12:09:23.893Z,10.95
2023-02-11T12:12:02.736Z,7.20
2023-02-11T12:15:07.499Z,7.72
2023-02-11T12:17:50.164Z,8.60
2023-02-11T12:20:48.996Z,9.68
2023-02-11T12:23:45.270Z,9.30
2023-02-11T12:26:20.298Z,10.43
2023-02-11T12:28:56.095Z,11.23
2023-02-11T12:31:35.567Z,8.80
2023-02-11T12:34:23.663Z,8.40
2023-02-11T12:37:10.367Z,11.65
2023-02-11T12:40:04.584Z,9.77
2023-02-11T12:43:17.458Z,8.80
2023-02-11T12:45:50.176Z,7.57
2023-02-11T12:48:37.849Z,8.75
2023-02-11T12:51:33.915Z,8.18
2023-02-11T12:54:19.511Z,6.40
2023-02-11T12:57:02.047Z,9.13
2023-02-11T12:59:37.927Z,10.73
2023-02-11T13:02:22.845Z,7.30
2023-02-11T13:04:55.694Z,4.68
2023-02-11T13:07:37.726Z,6.72
2023-02-11T13:10:29.800Z,8.80
2023-02-11T13:13:15.499Z,5.68
2023-02-11T13:16:11.644Z,7.18
2023-02-11T13:19:15.084Z,7.57
2023-02-11T13:22:10.303Z,7.03
2023-02-11T13:24:58.021Z,8.40
2023-02-11T13:28:11.028Z,7.20
2023-02-11T13:30:42.022Z,6.75
2023-02-11T13:33:21.780Z,6.13
2023-02-11T13:35:57.680Z,9.75
2023-02-11T13:38:27.691Z,6.32
2023-02-11T13:41:06.958Z,5.60
2023-02-11T13:43:36.380Z,4.25
2023-02-11T13:46:06.117Z,10.60
2023-02-11T13:48:46.583Z,5.55
2023-02-11T13:51:15.751Z,5.88
2023-02-11T13:53:55.660Z,6.78
2023-02-11T13:56:32.795Z,6.38
2023-02-11T13:59:02.938Z,7.55
2023-02-11T14:01:44.686Z,7.40
2023-02-11T14:04:43.338Z,7.00
2023-02-11T14:07:49.742Z,8.65
2023-02-11T14:10:41.377Z,7.10
2023-02-11T14:13:23.415Z,8.63
2023-02-11T14:16:08.316Z,8.60
2023-02-11T14:18:38.967Z,9.98
2023-02-11T14:21:33.216Z,8.25
2023-02-11T14:24:04.903Z,9.43
2023-02-11T14:27:04.984Z,8.13
2023-02-11T14:29:46.169Z,9.88
2023-02-11T14:32:31.694Z,10.23
2023-02-11T14:35:19.674Z,8.38
2023-02-11T14:38:15.607Z,10.98
2023-02-11T14:40:52.145Z,9.65
2023-02-11T14:43:24.215Z,7.30
2023-02-11T14:45:57.384Z,9.35
2023-02-11T14:48:31.265Z,8.15
2023-02-11T14:51:02.934Z,8.93
2023-02-11T14:53:32.558Z,6.88
2023-02-11T14:55:59.286Z,12.82
2023-02-11T14:58:31.481Z,8.45
2023-02-11T15:01:00.135Z,8.95
2023-02-11T15:03:40.478Z,13.13
2023-02-11T15:06:22.299Z,8.88
2023-02-11T15:08:53.317Z,9.30
2023-02-11T15:11:23.844Z,7.60
2023-02-11T15:13:54.980Z,7.65
2023-02-11T15:16:27.710Z,6.78
2023-02-11T15:18:59.312Z,7.63
2023-02-11T15:21:29.981Z,9.10
2023-02-11T15:24:28.680Z,8.48
2023-02-11T15:27:00.712Z,13.18
2023-02-11T15:29:39.720Z,9.27
2023-02-11T15:32:14.785Z,8.93
2023-02-11T15:34:42.838Z,9.60
2023-02-11T15:37:32.620Z,11.18
2023-02-11T15:40:22.882Z,8.57
2023-02-11T15:43:07.540Z,11.07
2023-02-11T15:45:35.680Z,9.18
2023-02-11T15:48:07.671Z,10.52
2023-02-11T15:50:37.326Z,7.32
2023-02-11T15:53:24.068Z,11.43
2023-02-11T15:55:54.217Z,11.00
2023-02-11T15:58:22.714Z,8.93
2023-02-11T16:00:54.681Z,13.85
2023-02-11T16:03:24.123Z,7.47
2023-02-11T16:05:51.487Z,6.30
2023-02-11T16:08:32.919Z,11.05
2023-02-11T16:11:03.176Z,8.82
2023-02-11T16:13:33.641Z,11.68
2023-02-11T16:16:05.553Z,11.77
2023-02-11T16:18:52.105Z,13.82
2023-02-11T16:21:33.149Z,11.63
2023-02-11T16:24:00.313Z,14.48
2023-02-11T16:26:43.521Z,11.88
2023-02-11T16:29:17.137Z,11.73
2023-02-11T16:31:47.817Z,11.13
2023-02-11T16:34:16.150Z,16.75
2023-02-11T16:36:43.173Z,18.42
2023-02-11T16:39:10.333Z,12.93
2023-02-11T16:41:37.065Z,11.95
2023-02-11T16:44:03.840Z,16.30
2023-02-11T16:46:31.894Z,14.38
2023-02-11T16:49:05.591Z,11.57
2023-02-11T16:51:32.278Z,12.88
2023-02-11T16:53:58.985Z,16.05
2023-02-11T16:56:25.720Z,14.00
2023-02-11T16:58:52.665Z,13.40
2023-02-11T17:01:19.497Z,16.45
2023-02-11T17:03:46.573Z,13.90
2023-02-11T17:06:13.975Z,16.20
2023-02-11T17:08:41.448Z,14.35
2023-02-11T17:11:08.137Z,18.73
2023-02-11T17:13:36.585Z,16.00
2023-02-11T17:16:03.347Z,19.60
2023-02-11T17:18:30.051Z,20.50
2023-02-11T17:20:56.686Z,15.70
2023-02-11T17:23:23.418Z,14.50
2023-02-11T17:25:57.582Z,14.93
2023-02-11T17:28:24.345Z,18.58
2023-02-11T17:30:51.161Z,18.90
2023-02-11T17:33:19.023Z,17.52
2023-02-11T17:35:46.313Z,13.40
2023-02-11T17:38:13.005Z,15.88
2023-02-11T17:40:39.981Z,15.73
2023-02-11T17:43:06.789Z,16.92
2023-02-11T17:45:34.172Z,13.35
2023-02-11T17:48:01.067Z,17.63
2023-02-11T17:50:29.379Z,21.05
2023-02-11T17:52:57.044Z,14.40
2023-02-11T17:55:23.723Z,15.95
2023-02-11T17:57:50.619Z,16.25
2023-02-11T18:00:18.076Z,16.83
2023-02-11T18:02:45.003Z,18.27
2023-02-11T18:05:11.684Z,21.42
2023-02-11T18:07:38.645Z,12.80
2023-02-11T18:10:07.148Z,14.05
2023-02-11T18:12:34.281Z,13.88
2023-02-11T18:15:01.154Z,15.05
2023-02-11T18:17:28.248Z,16.85
2023-02-11T18:19:57.055Z,15.70
2023-02-11T18:22:24.786Z,12.93
2023-02-11T18:24:53.064Z,13.68
2023-02-11T18:27:20.813Z,17.00
2023-02-11T18:29:47.544Z,15.35
2023-02-11T18:32:14.271Z,13.27
2023-02-11T18:34:41.583Z,15.38
2023-02-11T18:37:08.899Z,17.33
2023-02-11T18:39:36.013Z,16.95
2023-02-11T18:42:02.935Z,16.92
2023-02-11T18:44:29.629Z,11.57
2023-02-11T18:46:56.594Z,12.13
2023-02-11T18:49:23.561Z,15.20
2023-02-11T18:51:50.462Z,12.40
2023-02-11T18:54:17.200Z,13.15
2023-02-11T18:56:43.919Z,15.70
2023-02-11T18:59:10.635Z,13.10
2023-02-11T19:01:39.907Z,15.93
2023-02-11T19:04:06.981Z,14.90
2023-02-11T19:06:36.695Z,10.13
2023-02-11T19:09:07.296Z,10.43
2023-02-11T19:11:54.555Z,13.35
2023-02-11T19:14:28.125Z,14.38
2023-02-11T19:16:57.056Z,13.98
2023-02-11T19:19:26.831Z,23.80
2023-02-11T19:21:53.956Z,13.80
2023-02-11T19:24:21.447Z,12.65
2023-02-11T19:26:50.303Z,14.10
2023-02-11T19:29:17.529Z,11.43
2023-02-11T19:31:44.730Z,8.80
2023-02-11T19:34:14.090Z,11.77
2023-02-11T19:36:41.568Z,15.18
2023-02-11T19:39:08.581Z,14.60
2023-02-11T19:41:35.699Z,13.60
2023-02-11T19:44:03.689Z,14.68
2023-02-11T19:46:34.248Z,14.55
2023-02-11T19:49:02.440Z,13.20
2023-02-11T19:51:30.865Z,10.68
2023-02-11T19:53:58.477Z,15.00
2023-02-11T19:56:25.955Z,13.95
2023-02-11T19:58:52.724Z,14.07
2023-02-11T20:01:21.778Z,13.88
2023-02-11T20:03:50.605Z,11.77
2023-02-11T20:06:20.490Z,10.68
2023-02-11T20:08:47.330Z,13.90
2023-02-11T20:11:16.568Z,11.43
2023-02-11T20:13:43.820Z,14.23
2023-02-11T20:16:18.889Z,15.10
2023-02-11T20:18:47.085Z,21.40
2023-02-11T20:21:22.831Z,14.77
2023-02-11T20:23:50.357Z,16.45
2023-02-11T20:26:29.376Z,13.60
2023-02-11T20:28:57.360Z,17.83
2023-02-11T20:31:25.010Z,12.75
2023-02-11T20:33:52.266Z,13.27
2023-02-11T20:36:22.086Z,12.48
2023-02-11T20:38:49.724Z,12.30
2023-02-11T20:41:22.486Z,14.55
2023-02-11T20:43:53.079Z,14.48
2023-02-11T20:46:24.358Z,12.25
2023-02-11T20:48:52.156Z,13.48
2023-02-11T20:51:25.030Z,13.90
2023-02-11T20:53:52.671Z,15.07
2023-02-11T20:56:22.314Z,15.10
2023-02-11T20:58:49.302Z,12.73
2023-02-11T21:01:25.180Z,11.90
2023-02-11T21:03:53.856Z,16.30
2023-02-11T21:06:21.897Z,10.38
2023-02-11T21:08:49.187Z,12.25
2023-02-11T21:11:16.630Z,16.10
2023-02-11T21:13:44.269Z,11.27
2023-02-11T21:16:17.332Z,16.27
2023-02-11T21:18:44.079Z,14.18
2023-02-11T21:21:10.891Z,10.30
2023-02-11T21:23:39.603Z,13.90
2023-02-11T21:26:07.562Z,16.08
2023-02-11T21:28:35.220Z,10.85
2023-02-11T21:31:03.237Z,15.75
2023-02-11T21:33:33.556Z,13.18
2023-02-11T21:36:07.799Z,20.88
2023-02-11T21:38:35.736Z,10.75
2023-02-11T21:41:05.182Z,16.70
2023-02-11T21:43:32.114Z,12.52
2023-02-11T21:45:59.530Z,11.52
2023-02-11T21:48:26.711Z,13.15
2023-02-11T21:50:54.088Z,12.70
2023-02-11T21:53:25.059Z,12.65
2023-02-11T21:56:02.783Z,8.43
2023-02-11T21:58:30.049Z,12.52
2023-02-11T22:00:57.076Z,13.00
2023-02-11T22:03:23.836Z,9.80
2023-02-11T22:05:50.511Z,9.98
2023-02-11T22:08:20.041Z,13.10
2023-02-11T22:10:46.928Z,14.98
2023-02-11T22:13:13.589Z,12.65
2023-02-11T22:15:40.327Z,11.52
2023-02-11T22:18:07.007Z,12.95
2023-02-11T22:20:33.808Z,11.98
2023-02-11T22:23:00.563Z,10.75
2023-02-11T22:25:27.267Z,14.10
2023-02-11T22:27:53.904Z,12.25
2023-02-11T22:30:20.544Z,10.07
2023-02-11T22:32:48.432Z,11.70
2023-02-11T22:35:15.129Z,10.60
2023-02-11T22:37:41.850Z,13.95
2023-02-11T22:40:09.043Z,15.50
2023-02-11T22:42:35.809Z,10.85
2023-02-11T22:45:03.157Z,11.85
2023-02-11T22:47:29.947Z,12.38
2023-02-11T22:49:56.639Z,14.18
2023-02-11T22:52:23.753Z,12.98
2023-02-11T22:54:51.607Z,20.33
2023-02-11T22:57:18.464Z,15.00
2023-02-11T22:59:45.557Z,14.13
2023-02-11T23:02:12.451Z,11.93
2023-02-11T23:04:39.248Z,12.77
2023-02-11T23:07:05.963Z,17.13
2023-02-11T23:09:33.061Z,20.23
2023-02-11T23:11:59.792Z,15.52
2023-02-11T23:14:26.547Z,14.77
2023-02-11T23:16:53.310Z,17.52
2023-02-11T23:19:20.216Z,16.85
2023-02-11T23:21:51.160Z,13.77
2023-02-11T23:24:17.829Z,16.65
2023-02-11T23:26:44.747Z,11.43
2023-02-11T23:29:11.897Z,17.58
2023-02-11T23:31:40.888Z,13.77
2023-02-11T23:34:08.851Z,9.98
2023-02-11T23:36:36.136Z,11.20
2023-02-11T23:39:04.036Z,13.80
2023-02-11T23:41:30.737Z,17.20
2023-02-11T23:43:58.955Z,13.63
2023-02-11T23:46:27.095Z,21.60
2023-02-11T23:48:54.260Z,12.55
2023-02-11T23:51:21.804Z,11.98
2023-02-11T23:53:51.508Z,13.27
2023-02-11T23:56:26.190Z,12.90
2023-02-11T23:58:55.874Z,16.33
